createdAt,value
2023-05-20T00:00:37.866Z,4.83
2023-05-20T00:05:40.724Z,6.07
2023-05-20T00:10:43.223Z,6.13
2023-05-20T00:15:46.621Z,4.50
2023-05-20T00:20:49.023Z,3.87
2023-05-20T00:25:51.318Z,2.40
2023-05-20T00:30:53.785Z,2.20
2023-05-20T00:35:56.370Z,1.23
2023-05-20T00:40:58.822Z,1.70
2023-05-20T00:46:01.796Z,2.70
2023-05-20T00:51:05.386Z,1.37
2023-05-20T00:56:08.712Z,1.57
2023-05-20T01:01:11.861Z,1.20
2023-05-20T01:06:14.408Z,0.90
2023-05-20T01:11:31.796Z,0.93
2023-05-20T01:16:36.216Z,0.80
2023-05-20T01:21:39.039Z,1.47
2023-05-20T01:26:41.643Z,0.80
2023-05-20T01:31:44.262Z,0.80
2023-05-20T01:36:47.812Z,0.70
2023-05-20T01:41:50.398Z,0.73
2023-05-20T01:46:53.093Z,0.80
2023-05-20T01:51:56.021Z,0.70
2023-05-20T01:56:58.636Z,1.20
2023-05-20T02:02:01.164Z,0.90
2023-05-20T02:07:04.029Z,1.30
2023-05-20T02:12:07.207Z,1.00
2023-05-20T02:17:10.736Z,0.70
2023-05-20T02:22:14.294Z,1.03
2023-05-20T02:27:19.304Z,0.70
2023-05-20T02:32:21.853Z,0.70
2023-05-20T02:37:24.409Z,1.00
2023-05-20T02:42:26.862Z,0.80
2023-05-20T02:47:29.672Z,0.67
2023-05-20T02:52:32.171Z,0.80
2023-05-20T02:57:38.471Z,0.80
2023-05-20T03:02:42.727Z,0.80
2023-05-20T03:07:46.825Z,0.90
2023-05-20T03:12:49.448Z,0.60
2023-05-20T03:17:51.868Z,0.80
2023-05-20T03:22:54.283Z,1.17
2023-05-20T03:27:58.668Z,1.00
2023-05-20T03:33:03.171Z,0.80
2023-05-20T03:38:05.939Z,1.10
2023-05-20T03:43:10.920Z,0.97
2023-05-20T03:48:13.535Z,0.90
2023-05-20T03:53:16.202Z,0.80
2023-05-20T03:58:21.011Z,1.10
2023-05-20T04:03:23.921Z,1.03
2023-05-20T04:08:26.757Z,1.00
2023-05-20T04:13:29.544Z,0.83
2023-05-20T04:18:32.351Z,1.10
2023-05-20T04:23:34.865Z,0.87
2023-05-20T04:28:38.141Z,0.90
2023-05-20T04:33:41.518Z,1.00
2023-05-20T04:38:44.994Z,0.87
2023-05-20T04:43:47.458Z,1.00
2023-05-20T04:48:49.962Z,1.10
2023-05-20T04:53:52.413Z,1.20
2023-05-20T04:58:56.467Z,0.90
2023-05-20T05:03:59.010Z,0.83
2023-05-20T05:09:01.557Z,1.47
2023-05-20T05:14:04.301Z,0.87
2023-05-20T05:19:07.673Z,1.07
2023-05-20T05:24:13.492Z,1.13
2023-05-20T05:29:16.685Z,1.00
2023-05-20T05:34:19.160Z,1.20
2023-05-20T05:39:21.984Z,0.90
2023-05-20T05:44:24.424Z,2.67
2023-05-20T05:49:27.298Z,0.90
2023-05-20T05:54:29.891Z,1.00
2023-05-20T05:59:32.467Z,1.00
2023-05-20T06:04:35.412Z,0.93
2023-05-20T06:09:38.973Z,1.10
2023-05-20T06:14:41.773Z,0.80
2023-05-20T06:19:44.330Z,1.20
2023-05-20T06:24:46.901Z,1.17
2023-05-20T06:29:49.471Z,4.43
2023-05-20T06:34:52.060Z,1.77
2023-05-20T06:39:54.542Z,1.30
2023-05-20T06:44:57.959Z,2.73
2023-05-20T06:50:21.019Z,1.30
2023-05-20T06:55:23.667Z,1.10
2023-05-20T07:00:26.505Z,1.90
2023-05-20T07:05:29.905Z,1.20
2023-05-20T07:10:32.470Z,1.20
2023-05-20T07:15:35.409Z,1.40
2023-05-20T07:20:38.847Z,1.30
2023-05-20T07:25:47.713Z,1.17
2023-05-20T07:30:50.957Z,1.20
2023-05-20T07:36:00.048Z,1.17
2023-05-20T07:41:02.649Z,1.20
2023-05-20T07:46:05.574Z,1.67
2023-05-20T07:51:07.919Z,1.30
2023-05-20T07:56:10.611Z,1.10
2023-05-20T08:01:13.965Z,1.90
2023-05-20T08:06:17.943Z,1.50
2023-05-20T08:11:22.052Z,5.10
2023-05-20T08:16:24.731Z,1.10
2023-05-20T08:21:27.284Z,1.13
2023-05-20T08:26:29.915Z,1.30
2023-05-20T08:31:33.565Z,1.00
2023-05-20T08:36:36.370Z,2.67
2023-05-20T08:41:39.763Z,2.07
2023-05-20T08:46:42.845Z,1.10
2023-05-20T08:51:47.694Z,1.43
2023-05-20T08:56:50.637Z,1.30
2023-05-20T09:01:53.249Z,2.17
2023-05-20T09:06:56.123Z,2.63
2023-05-20T09:11:58.494Z,1.50
2023-05-20T09:17:01.041Z,1.77
2023-05-20T09:22:05.584Z,2.30
2023-05-20T09:27:08.139Z,1.70
2023-05-20T09:32:14.318Z,6.47
2023-05-20T09:37:22.606Z,7.67
2023-05-20T09:42:29.345Z,1.67
2023-05-20T09:47:32.308Z,1.90
2023-05-20T09:52:39.249Z,1.30
2023-05-20T09:57:42.409Z,1.93
2023-05-20T10:02:52.564Z,1.50
2023-05-20T10:08:17.225Z,1.20
2023-05-20T10:13:34.734Z,5.73
2023-05-20T10:18:58.716Z,2.43
2023-05-20T10:24:08.792Z,2.53
2023-05-20T10:29:18.599Z,1.40
2023-05-20T10:34:23.025Z,1.20
2023-05-20T10:39:30.268Z,1.33
2023-05-20T10:44:47.482Z,1.90
2023-05-20T10:49:49.986Z,1.57
2023-05-20T10:55:01.292Z,2.73
2023-05-20T11:00:06.485Z,1.30
2023-05-20T11:05:12.715Z,1.50
2023-05-20T11:10:15.273Z,1.50
2023-05-20T11:15:18.372Z,1.70
2023-05-20T11:20:21.192Z,1.50
2023-05-20T11:25:24.211Z,1.50
2023-05-20T11:30:27.071Z,1.50
2023-05-20T11:35:30.978Z,1.73
2023-05-20T11:40:42.755Z,1.50
2023-05-20T11:45:59.715Z,1.60
2023-05-20T11:51:02.951Z,1.70
2023-05-20T11:56:05.597Z,1.90
2023-05-20T12:01:20.947Z,1.87
2023-05-20T12:06:24.658Z,1.60
2023-05-20T12:11:27.201Z,1.53
2023-05-20T12:16:30.716Z,1.43
2023-05-20T12:21:33.357Z,1.73
2023-05-20T12:26:35.858Z,1.77
2023-05-20T12:31:40.124Z,1.97
2023-05-20T12:36:42.875Z,2.20
2023-05-20T12:41:45.375Z,1.70
2023-05-20T12:46:48.130Z,2.03
2023-05-20T12:51:50.872Z,2.60
2023-05-20T12:56:53.296Z,2.60
2023-05-20T13:01:55.886Z,2.37
2023-05-20T13:06:58.609Z,2.83
2023-05-20T13:12:02.262Z,2.90
2023-05-20T13:17:04.905Z,3.20
2023-05-20T13:22:07.848Z,2.57
2023-05-20T13:27:11.126Z,2.93
2023-05-20T13:32:14.033Z,2.30
2023-05-20T13:37:16.439Z,1.97
2023-05-20T13:42:18.905Z,2.00
2023-05-20T13:47:21.817Z,2.27
2023-05-20T13:52:24.433Z,2.00
2023-05-20T13:57:28.332Z,2.10
2023-05-20T14:02:32.212Z,1.80
2023-05-20T14:07:34.990Z,1.83
2023-05-20T14:12:37.445Z,1.40
2023-05-20T14:17:41.551Z,1.70
2023-05-20T14:22:45.054Z,1.80
2023-05-20T14:27:50.849Z,2.40
2023-05-20T14:32:53.451Z,1.60
2023-05-20T14:37:55.932Z,1.90
2023-05-20T14:42:58.488Z,1.80
2023-05-20T14:48:00.916Z,1.70
2023-05-20T14:53:03.510Z,1.80
2023-05-20T14:58:05.914Z,1.90
2023-05-20T15:03:08.623Z,1.63
2023-05-20T15:08:11.443Z,1.97
2023-05-20T15:13:14.309Z,1.57
2023-05-20T15:18:17.114Z,1.30
2023-05-20T15:23:19.786Z,1.60
2023-05-20T15:28:22.376Z,1.33
2023-05-20T15:33:25.164Z,1.63
2023-05-20T15:38:27.876Z,1.83
2023-05-20T15:43:30.502Z,1.27
2023-05-20T15:48:40.154Z,1.70
2023-05-20T15:59:23.771Z,2.13
2023-05-20T16:04:30.346Z,2.03
2023-05-20T16:09:39.346Z,2.20
2023-05-20T16:14:45.571Z,2.50
2023-05-20T16:19:50.445Z,2.53
2023-05-20T16:24:53.105Z,2.37
2023-05-20T16:29:55.968Z,2.17
2023-05-20T16:34:58.526Z,2.63
2023-05-20T16:40:01.181Z,2.33
2023-05-20T16:45:05.799Z,2.30
2023-05-20T16:50:09.303Z,2.20
2023-05-20T16:55:12.965Z,2.40
2023-05-20T17:00:16.686Z,2.90
2023-05-20T17:05:22.485Z,2.17
2023-05-20T17:10:25.091Z,2.60
2023-05-20T17:15:27.812Z,3.37
2023-05-20T17:20:30.389Z,2.77
2023-05-20T17:25:33.309Z,2.43
2023-05-20T17:30:38.085Z,2.63
2023-05-20T17:35:41.150Z,3.23
2023-05-20T17:40:44.001Z,3.63
2023-05-20T17:45:46.989Z,2.40
2023-05-20T17:50:49.570Z,2.70
2023-05-20T17:55:52.171Z,2.40
2023-05-20T18:00:54.774Z,2.77
2023-05-20T18:05:57.458Z,3.07
2023-05-20T18:11:00.762Z,3.37
2023-05-20T18:16:03.367Z,3.37
2023-05-20T18:21:08.072Z,3.20
2023-05-20T18:26:10.891Z,4.07
2023-05-20T18:31:13.440Z,3.90
2023-05-20T18:36:16.111Z,4.53
2023-05-20T18:41:18.926Z,3.53
2023-05-20T18:46:26.321Z,3.17
2023-05-20T18:51:33.464Z,3.90
2023-05-20T18:56:39.613Z,5.00
2023-05-20T19:01:43.591Z,4.57
2023-05-20T19:06:46.184Z,4.77
2023-05-20T19:11:49.038Z,5.00
2023-05-20T19:16:52.767Z,4.87
2023-05-20T19:22:00.520Z,5.43
2023-05-20T19:27:03.536Z,4.20
2023-05-20T19:32:06.730Z,3.80
2023-05-20T19:37:12.600Z,3.53
2023-05-20T19:42:18.492Z,3.37
2023-05-20T19:47:21.708Z,3.27
2023-05-20T19:52:24.301Z,3.13
2023-05-20T19:57:27.743Z,3.33
2023-05-20T20:02:30.703Z,3.27
2023-05-20T20:07:33.714Z,3.83
2023-05-20T20:12:36.197Z,3.63
2023-05-20T20:17:45.798Z,3.27
2023-05-20T20:22:48.521Z,4.13
2023-05-20T20:27:51.417Z,4.10
2023-05-20T20:32:54.362Z,5.00
2023-05-20T20:37:57.011Z,4.70
2023-05-20T20:42:59.432Z,4.07
2023-05-20T20:48:02.142Z,4.40
2023-05-20T20:53:04.857Z,4.07
2023-05-20T20:58:10.882Z,3.93
2023-05-20T21:03:13.740Z,3.73
2023-05-20T21:08:17.633Z,4.70
2023-05-20T21:13:20.150Z,3.63
2023-05-20T21:18:24.187Z,4.37
2023-05-20T21:23:26.760Z,4.40
2023-05-20T21:28:29.150Z,3.90
2023-05-20T21:33:31.544Z,3.90
2023-05-20T21:38:33.983Z,4.23
2023-05-20T21:43:37.716Z,3.23
2023-05-20T21:48:40.213Z,3.77
2023-05-20T21:53:42.733Z,3.43
2023-05-20T21:58:45.864Z,3.30
2023-05-20T22:03:51.282Z,3.87
2023-05-20T22:08:55.177Z,3.43
2023-05-20T22:14:00.138Z,3.70
2023-05-20T22:19:02.902Z,3.90
2023-05-20T22:24:05.486Z,3.37
2023-05-20T22:29:08.471Z,3.87
2023-05-20T22:34:10.902Z,4.67
2023-05-20T22:39:13.677Z,4.10
2023-05-20T22:44:19.129Z,4.37
2023-05-20T22:49:24.175Z,3.83
2023-05-20T22:54:26.816Z,4.00
2023-05-20T22:59:31.483Z,2.90
2023-05-20T23:04:34.346Z,3.97
2023-05-20T23:09:36.758Z,2.93
2023-05-20T23:14:39.188Z,3.13
2023-05-20T23:19:41.729Z,3.40
2023-05-20T23:24:44.127Z,3.00
2023-05-20T23:29:46.517Z,3.03
2023-05-20T23:34:53.725Z,3.93
2023-05-20T23:39:56.339Z,3.13
2023-05-20T23:44:58.773Z,3.50
2023-05-20T23:50:01.716Z,3.07
2023-05-20T23:55:09.642Z,3.73
